createdAt,value
2022-11-03T00:02:09.081Z,100978.96
2022-11-03T00:04:37.067Z,100981.10
2022-11-03T00:07:05.288Z,100980.84
2022-11-03T00:09:33.139Z,100981.06
2022-11-03T00:12:01.815Z,100980.98
2022-11-03T00:14:30.079Z,100982.83
2022-11-03T00:16:57.752Z,100985.19
2022-11-03T00:19:25.453Z,100981.43
2022-11-03T00:21:53.495Z,100980.34
2022-11-03T00:24:21.202Z,100983.19
2022-11-03T00:26:48.883Z,100977.52
2022-11-03T00:29:16.973Z,100977.95
2022-11-03T00:31:45.131Z,100979.30
2022-11-03T00:34:12.987Z,100974.73
2022-11-03T00:36:43.015Z,100973.08
2022-11-03T00:39:11.419Z,100970.95
2022-11-03T00:41:39.971Z,100971.80
2022-11-03T00:44:10.429Z,100977.84
2022-11-03T00:46:38.433Z,100972.02
2022-11-03T00:49:06.595Z,100974.77
2022-11-03T00:51:37.597Z,100975.58
2022-11-03T00:54:05.969Z,100978.63
2022-11-03T00:56:36.398Z,100977.02
2022-11-03T00:59:06.176Z,100976.99
2022-11-03T01:02:00.434Z,100969.81
2022-11-03T01:04:48.381Z,100958.08
2022-11-03T01:07:20.622Z,100970.14
2022-11-03T01:09:50.600Z,100967.96
2022-11-03T01:12:22.662Z,100967.73
2022-11-03T01:14:53.395Z,100967.82
2022-11-03T01:17:24.724Z,100968.79
2022-11-03T01:19:56.312Z,100967.11
2022-11-03T01:22:25.193Z,100963.88
2022-11-03T01:24:54.345Z,100966.20
2022-11-03T01:27:23.556Z,100969.08
2022-11-03T01:29:52.435Z,100967.92
2022-11-03T01:32:20.143Z,100967.64
2022-11-03T01:34:48.116Z,100970.46
2022-11-03T01:37:16.073Z,100969.30
2022-11-03T01:39:43.775Z,100970.23
2022-11-03T01:42:14.319Z,100975.32
2022-11-03T01:44:48.942Z,100973.80
2022-11-03T01:47:26.428Z,100973.33
2022-11-03T01:50:02.479Z,100966.43
2022-11-03T01:52:37.291Z,100967.91
2022-11-03T01:55:11.027Z,100964.15
2022-11-03T01:57:50.779Z,100970.10
2022-11-03T02:00:18.464Z,100966.17
2022-11-03T02:02:47.287Z,100963.98
2022-11-03T02:05:21.274Z,100956.55
2022-11-03T02:07:56.051Z,100953.45
2022-11-03T02:10:25.348Z,100952.13
2022-11-03T02:12:53.969Z,100948.75
2022-11-03T02:15:23.126Z,100945.35
2022-11-03T02:17:55.296Z,100943.70
2022-11-03T02:20:27.545Z,100939.42
2022-11-03T02:23:15.330Z,100934.95
2022-11-03T02:25:46.491Z,100925.77
2022-11-03T02:28:18.720Z,100923.40
2022-11-03T02:30:57.632Z,100925.86
2022-11-03T02:33:30.276Z,100924.34
2022-11-03T02:36:07.229Z,100924.27
2022-11-03T02:38:38.357Z,100920.56
2022-11-03T02:41:09.287Z,100922.58
2022-11-03T02:43:38.810Z,100923.14
2022-11-03T02:46:07.832Z,100920.44
2022-11-03T02:48:36.339Z,100917.56
2022-11-03T02:51:04.632Z,100917.25
2022-11-03T02:53:39.520Z,100914.55
2022-11-03T02:56:37.585Z,100917.96
2022-11-03T02:59:12.796Z,100916.53
2022-11-03T03:01:56.488Z,100913.72
2022-11-03T03:04:34.683Z,100911.20
2022-11-03T03:07:06.793Z,100907.66
2022-11-03T03:09:46.490Z,100906.90
2022-11-03T03:12:18.361Z,100908.74
2022-11-03T03:14:50.181Z,100905.02
2022-11-03T03:17:25.949Z,100901.09
2022-11-03T03:20:01.783Z,100900.77
2022-11-03T03:22:43.192Z,100897.96
2022-11-03T03:25:16.274Z,100894.68
2022-11-03T03:27:49.948Z,100890.86
2022-11-03T03:30:18.800Z,100883.96
2022-11-03T03:32:51.312Z,100882.66
2022-11-03T03:35:23.591Z,100882.74
2022-11-03T03:37:57.722Z,100884.56
2022-11-03T03:40:30.813Z,100882.73
2022-11-03T03:43:01.279Z,100877.23
2022-11-03T03:45:31.492Z,100879.20
2022-11-03T03:47:59.576Z,100880.81
2022-11-03T03:50:33.440Z,100877.41
2022-11-03T03:53:04.196Z,100877.10
2022-11-03T03:55:42.149Z,100875.92
2022-11-03T03:58:13.162Z,100875.38
2022-11-03T04:00:42.539Z,100874.63
2022-11-03T04:03:17.715Z,100874.79
2022-11-03T04:05:46.352Z,100871.66
2022-11-03T04:08:15.829Z,100873.27
2022-11-03T04:11:04.699Z,100872.43
2022-11-03T04:13:52.461Z,100869.18
2022-11-03T04:16:38.965Z,100866.10
2022-11-03T04:19:29.444Z,100864.56
2022-11-03T04:22:16.232Z,100861.97
2022-11-03T04:24:49.633Z,100860.41
2022-11-03T04:27:28.707Z,100861.96
2022-11-03T04:30:02.124Z,100857.48
2022-11-03T04:32:30.539Z,100857.03
2022-11-03T04:34:59.597Z,100852.91
2022-11-03T04:37:29.022Z,100851.38
2022-11-03T04:40:01.076Z,100851.41
2022-11-03T04:42:31.776Z,100845.84
2022-11-03T04:45:02.356Z,100850.86
2022-11-03T04:47:30.876Z,100847.91
2022-11-03T04:49:59.218Z,100846.38
2022-11-03T04:52:26.912Z,100842.39
2022-11-03T04:54:54.882Z,100842.75
2022-11-03T04:57:22.628Z,100841.38
2022-11-03T04:59:53.036Z,100843.80
2022-11-03T05:02:21.932Z,100843.44
2022-11-03T05:04:51.897Z,100833.89
2022-11-03T05:07:29.370Z,100829.90
2022-11-03T05:09:57.634Z,100831.33
2022-11-03T05:12:25.873Z,100827.17
2022-11-03T05:14:58.057Z,100825.83
2022-11-03T05:17:27.954Z,100816.86
2022-11-03T05:20:01.842Z,100818.05
2022-11-03T05:22:35.690Z,100813.48
2022-11-03T05:25:32.764Z,100812.63
2022-11-03T05:28:00.749Z,100813.17
2022-11-03T05:30:28.605Z,100814.58
2022-11-03T05:32:56.411Z,100815.99
2022-11-03T05:35:24.064Z,100813.79
2022-11-03T05:37:51.841Z,100813.15
2022-11-03T05:40:26.275Z,100814.06
2022-11-03T05:42:58.959Z,100812.02
2022-11-03T05:45:32.453Z,100809.60
2022-11-03T05:48:03.709Z,100806.50
2022-11-03T05:50:35.060Z,100801.31
2022-11-03T05:53:32.060Z,100798.73
2022-11-03T05:56:03.741Z,100798.56
2022-11-03T05:58:38.919Z,100798.04
2022-11-03T06:01:29.846Z,100792.63
2022-11-03T06:04:00.363Z,100792.39
2022-11-03T06:06:34.236Z,100791.99
2022-11-03T06:09:16.687Z,100795.56
2022-11-03T06:11:46.188Z,100793.75
2022-11-03T06:14:24.301Z,100796.13
2022-11-03T06:17:01.987Z,100797.77
2022-11-03T06:19:35.877Z,100797.67
2022-11-03T06:22:15.524Z,100798.15
2022-11-03T06:24:43.908Z,100802.72
2022-11-03T06:27:16.518Z,100806.81
2022-11-03T06:29:50.844Z,100811.59
2022-11-03T06:32:18.991Z,100811.99
2022-11-03T06:34:54.582Z,100809.44
2022-11-03T06:37:28.077Z,100816.27
2022-11-03T06:40:03.121Z,100817.56
2022-11-03T06:42:35.262Z,100816.73
2022-11-03T06:45:15.070Z,100817.30
2022-11-03T06:47:42.831Z,100818.02
2022-11-03T06:50:34.547Z,100809.91
2022-11-03T06:53:04.670Z,100810.92
2022-11-03T06:55:40.481Z,100810.92
2022-11-03T06:58:19.315Z,100809.52
2022-11-03T07:00:50.957Z,100806.39
2022-11-03T07:03:38.021Z,100806.71
2022-11-03T07:06:27.316Z,100808.80
2022-11-03T07:09:04.272Z,100806.33
2022-11-03T07:11:36.411Z,100803.03
2022-11-03T07:14:13.919Z,100805.64
2022-11-03T07:16:45.396Z,100802.88
2022-11-03T07:19:26.578Z,100800.41
2022-11-03T07:21:59.279Z,100798.67
2022-11-03T07:24:43.767Z,100799.75
2022-11-03T07:27:28.547Z,100802.48
2022-11-03T07:30:11.377Z,100798.41
2022-11-03T07:32:39.931Z,100802.16
2022-11-03T07:35:16.752Z,100803.12
2022-11-03T07:37:46.161Z,100799.20
2022-11-03T07:40:35.540Z,100798.23
2022-11-03T07:43:14.393Z,100792.71
2022-11-03T07:45:42.487Z,100785.14
2022-11-03T07:48:36.624Z,100785.89
2022-11-03T07:51:20.111Z,100776.87
2022-11-03T07:53:50.883Z,100770.09
2022-11-03T07:56:26.881Z,100767.54
2022-11-03T07:59:14.411Z,100769.31
2022-11-03T08:01:51.250Z,100769.64
2022-11-03T08:04:25.332Z,100764.60
2022-11-03T08:06:54.136Z,100762.27
2022-11-03T08:09:22.256Z,100754.75
2022-11-03T08:11:50.702Z,100744.08
2022-11-03T08:14:21.185Z,100742.49
2022-11-03T08:16:49.534Z,100738.98
2022-11-03T08:19:17.616Z,100737.19
2022-11-03T08:21:45.736Z,100733.96
2022-11-03T08:24:14.412Z,100735.49
2022-11-03T08:26:45.357Z,100735.59
2022-11-03T08:29:14.675Z,100728.50
2022-11-03T08:31:45.237Z,100722.98
2022-11-03T08:34:13.637Z,100713.11
2022-11-03T08:36:43.230Z,100706.72
2022-11-03T08:39:11.861Z,100700.19
2022-11-03T08:41:39.677Z,100693.35
2022-11-03T08:44:07.694Z,100687.88
2022-11-03T08:46:36.499Z,100686.10
2022-11-03T08:49:07.170Z,100683.88
2022-11-03T08:51:44.335Z,100677.74
2022-11-03T08:54:12.717Z,100673.23
2022-11-03T08:56:46.712Z,100649.02
2022-11-03T08:59:33.470Z,100662.77
2022-11-03T09:02:03.970Z,100655.47
2022-11-03T09:04:33.619Z,100657.64
2022-11-03T09:07:06.434Z,100651.80
2022-11-03T09:12:30.944Z,100636.45
2022-11-03T09:15:06.083Z,100645.63
2022-11-03T09:17:34.859Z,100640.52
2022-11-03T09:20:09.934Z,100638.93
2022-11-03T09:22:47.828Z,100632.02
2022-11-03T09:25:16.455Z,100627.61
2022-11-03T09:27:44.563Z,100621.60
2022-11-03T09:30:14.141Z,100613.36
2022-11-03T09:32:42.664Z,100614.92
2022-11-03T09:35:12.345Z,100610.83
2022-11-03T09:37:40.654Z,100608.63
2022-11-03T09:40:11.717Z,100605.88
2022-11-03T09:42:40.123Z,100604.50
2022-11-03T09:45:09.621Z,100593.48
2022-11-03T09:47:40.269Z,100598.80
2022-11-03T09:50:16.671Z,100595.31
2022-11-03T09:52:50.327Z,100590.19
2022-11-03T09:55:23.996Z,100585.27
2022-11-03T09:58:00.640Z,100582.42
2022-11-03T10:00:29.524Z,100581.23
2022-11-03T10:02:58.080Z,100578.54
2022-11-03T10:05:29.171Z,100582.32
2022-11-03T10:08:01.098Z,100575.37
2022-11-03T10:10:32.277Z,100574.08
2022-11-03T10:13:01.339Z,100571.75
2022-11-03T10:15:29.367Z,100564.75
2022-11-03T10:17:57.513Z,100564.23
2022-11-03T10:20:29.091Z,100555.83
2022-11-03T10:22:56.913Z,100546.15
2022-11-03T10:25:30.777Z,100537.29
2022-11-03T10:28:21.617Z,100534.66
2022-11-03T10:31:11.120Z,100526.69
2022-11-03T10:34:04.305Z,100524.64
2022-11-03T10:36:34.218Z,100524.70
2022-11-03T10:39:49.789Z,100517.44
2022-11-03T10:42:35.963Z,100506.84
2022-11-03T10:45:19.496Z,100511.19
2022-11-03T10:48:07.104Z,100507.30
2022-11-03T10:50:34.852Z,100503.11
2022-11-03T10:53:12.884Z,100487.10
2022-11-03T10:55:43.288Z,100488.11
2022-11-03T10:58:14.040Z,100491.22
2022-11-03T11:00:44.264Z,100485.52
2022-11-03T11:03:16.591Z,100477.00
2022-11-03T11:05:49.216Z,100469.55
2022-11-03T11:08:23.756Z,100461.36
2022-11-03T11:10:54.042Z,100454.05
2022-11-03T11:13:24.359Z,100450.15
2022-11-03T11:15:57.754Z,100448.22
2022-11-03T11:18:28.636Z,100439.85
2022-11-03T11:21:00.052Z,100438.59
2022-11-03T11:23:27.802Z,100433.23
2022-11-03T11:26:30.076Z,100431.69
2022-11-03T11:29:10.175Z,100422.73
2022-11-03T11:31:39.312Z,100417.65
2022-11-03T11:34:16.947Z,100411.80
2022-11-03T11:36:47.402Z,100411.25
2022-11-03T11:39:15.312Z,100403.63
2022-11-03T11:42:15.538Z,100399.59
2022-11-03T11:44:43.811Z,100393.88
2022-11-03T11:47:29.781Z,100388.85
2022-11-03T11:50:07.338Z,100380.80
2022-11-03T11:52:40.428Z,100366.91
2022-11-03T11:55:49.323Z,100363.83
2022-11-03T11:58:29.987Z,100359.76
2022-11-03T12:01:21.801Z,100353.70
2022-11-03T12:03:51.991Z,100353.08
2022-11-03T12:06:33.174Z,100346.35
2022-11-03T12:09:07.511Z,100345.98
2022-11-03T12:11:56.790Z,100339.37
2022-11-03T12:14:31.865Z,100334.30
2022-11-03T12:17:16.130Z,100333.20
2022-11-03T12:19:52.669Z,100342.06
2022-11-03T12:22:23.697Z,100342.05
2022-11-03T12:25:02.064Z,100338.91
2022-11-03T12:27:29.952Z,100326.39
2022-11-03T12:30:04.745Z,100321.55
2022-11-03T12:32:35.762Z,100322.06
2022-11-03T12:35:05.686Z,100312.02
2022-11-03T12:37:33.499Z,100311.27
2022-11-03T12:40:01.679Z,100305.17
2022-11-03T12:42:29.907Z,100302.66
2022-11-03T12:44:57.957Z,100297.21
2022-11-03T12:47:25.844Z,100291.61
2022-11-03T12:49:53.835Z,100284.91
2022-11-03T12:52:21.653Z,100280.16
2022-11-03T12:54:49.499Z,100279.20
2022-11-03T12:57:17.363Z,100271.19
2022-11-03T12:59:45.647Z,100267.76
2022-11-03T13:02:13.644Z,100266.44
2022-11-03T13:04:45.664Z,100267.73
2022-11-03T13:07:13.524Z,100266.90
2022-11-03T13:09:41.284Z,100260.42
2022-11-03T13:12:30.947Z,100254.50
2022-11-03T13:15:00.866Z,100248.90
2022-11-03T13:17:40.437Z,100247.36
2022-11-03T13:20:17.416Z,100242.50
2022-11-03T13:22:45.388Z,100242.27
2022-11-03T13:25:13.227Z,100234.73
2022-11-03T13:27:41.383Z,100233.05
2022-11-03T13:30:09.707Z,100223.61
2022-11-03T13:32:37.911Z,100220.44
2022-11-03T13:35:10.868Z,100219.79
2022-11-03T13:37:43.191Z,100214.98
2022-11-03T13:40:35.910Z,100206.00
2022-11-03T13:43:06.874Z,100199.32
2022-11-03T13:45:35.116Z,100198.85
2022-11-03T13:50:52.371Z,100185.58
2022-11-03T13:56:11.402Z,100182.13
2022-11-03T14:01:31.423Z,100181.06
2022-11-03T14:06:47.295Z,100172.79
2022-11-03T14:09:15.050Z,100166.88
2022-11-03T14:12:01.407Z,100157.14
2022-11-03T14:14:29.412Z,100157.73
2022-11-03T14:16:57.302Z,100148.05
2022-11-03T14:19:33.370Z,100147.84
2022-11-03T14:22:04.906Z,100150.35
2022-11-03T14:24:32.667Z,100149.17
2022-11-03T14:27:00.400Z,100152.91
2022-11-03T14:29:28.550Z,100156.41
2022-11-03T14:31:56.262Z,100155.64
2022-11-03T14:34:24.106Z,100156.52
2022-11-03T14:36:52.196Z,100150.62
2022-11-03T14:39:19.975Z,100151.06
2022-11-03T14:42:03.451Z,100150.72
2022-11-03T14:44:35.798Z,100144.94
2022-11-03T14:47:05.135Z,100139.36
2022-11-03T14:49:34.743Z,100137.80
2022-11-03T14:52:03.885Z,100139.95
2022-11-03T14:54:31.697Z,100136.05
2022-11-03T14:56:59.979Z,100135.70
2022-11-03T14:59:27.909Z,100130.42
2022-11-03T15:01:56.489Z,100126.27
2022-11-03T15:04:25.381Z,100124.75
2022-11-03T15:06:53.301Z,100118.53
2022-11-03T15:09:21.196Z,100121.02
2022-11-03T15:11:50.039Z,100116.95
2022-11-03T15:14:17.836Z,100117.75
2022-11-03T15:16:46.280Z,100121.89
2022-11-03T15:19:15.996Z,100114.34
2022-11-03T15:21:43.816Z,100108.55
2022-11-03T15:26:59.463Z,100098.92
2022-11-03T15:29:27.193Z,100090.59
2022-11-03T15:31:55.082Z,100085.54
2022-11-03T15:34:23.895Z,100080.39
2022-11-03T15:36:51.626Z,100076.66
2022-11-03T15:39:19.318Z,100077.27
2022-11-03T15:41:47.570Z,100076.28
2022-11-03T15:44:15.376Z,100074.59
2022-11-03T15:46:43.311Z,100065.55
2022-11-03T15:49:11.244Z,100062.43
2022-11-03T15:51:38.920Z,100051.13
2022-11-03T15:54:06.709Z,100044.35
2022-11-03T15:56:34.598Z,100040.35
2022-11-03T15:59:02.327Z,100031.64
2022-11-03T16:01:30.167Z,100034.83
2022-11-03T16:03:58.110Z,100034.70
2022-11-03T16:06:40.544Z,100030.38
2022-11-03T16:09:14.559Z,100032.59
2022-11-03T16:11:42.246Z,100029.89
2022-11-03T16:14:10.435Z,100026.28
2022-11-03T16:16:38.695Z,100021.54
2022-11-03T16:19:06.388Z,100015.61
2022-11-03T16:21:34.041Z,100014.48
2022-11-03T16:24:03.125Z,100007.16
2022-11-03T16:26:31.616Z,100010.64
2022-11-03T16:28:59.446Z,100008.35
2022-11-03T16:31:27.536Z,100003.15
2022-11-03T16:33:55.453Z,100002.98
2022-11-03T16:36:23.155Z,99995.92
2022-11-03T16:38:51.634Z,99993.89
2022-11-03T16:41:19.428Z,99994.14
2022-11-03T16:43:48.157Z,99993.46
2022-11-03T16:46:17.004Z,99994.90
2022-11-03T16:48:44.697Z,99994.89
2022-11-03T16:51:12.550Z,99997.24
2022-11-03T16:53:40.679Z,99993.83
2022-11-03T16:56:09.092Z,99987.59
2022-11-03T16:58:36.836Z,99982.92
2022-11-03T17:01:05.394Z,99974.61
2022-11-03T17:03:33.212Z,99961.10
2022-11-03T17:06:00.979Z,99958.19
2022-11-03T17:08:51.764Z,99950.59
2022-11-03T17:11:35.637Z,99943.15
2022-11-03T17:14:05.322Z,99941.64
2022-11-03T17:16:33.112Z,99940.99
2022-11-03T17:19:01.258Z,99934.89
2022-11-03T17:21:29.741Z,99933.66
2022-11-03T17:23:59.758Z,99936.17
2022-11-03T17:26:43.399Z,99934.51
2022-11-03T17:29:16.400Z,99938.56
2022-11-03T17:31:44.360Z,99938.04
2022-11-03T17:34:12.392Z,99930.70
2022-11-03T17:36:40.601Z,99924.92
2022-11-03T17:39:14.476Z,99922.85
2022-11-03T17:41:42.702Z,99918.98
2022-11-03T17:44:13.754Z,99920.73
2022-11-03T17:46:41.482Z,99913.23
2022-11-03T17:49:09.652Z,99908.15
2022-11-03T17:51:42.005Z,99906.90
2022-11-03T17:54:16.166Z,99901.66
2022-11-03T17:56:44.357Z,99897.47
2022-11-03T17:59:15.069Z,99891.75
2022-11-03T18:01:43.555Z,99886.66
2022-11-03T18:06:49.151Z,99881.38
2022-11-03T18:09:17.091Z,99878.93
2022-11-03T18:12:03.238Z,99876.98
2022-11-03T18:14:31.186Z,99873.16
2022-11-03T18:16:59.104Z,99869.27
2022-11-03T18:19:26.939Z,99865.09
2022-11-03T18:21:54.941Z,99856.61
2022-11-03T18:24:22.627Z,99853.28
2022-11-03T18:26:50.437Z,99852.68
2022-11-03T18:29:18.465Z,99842.52
2022-11-03T18:31:49.622Z,99842.35
2022-11-03T18:34:22.602Z,99836.91
2022-11-03T18:36:52.819Z,99834.04
2022-11-03T18:39:26.492Z,99832.81
2022-11-03T18:41:54.511Z,99823.89
2022-11-03T18:44:30.556Z,99815.16
2022-11-03T18:46:58.719Z,99818.84
2022-11-03T18:49:27.682Z,99813.66
2022-11-03T18:52:03.089Z,99808.77
2022-11-03T18:54:34.320Z,99802.33
2022-11-03T18:57:02.760Z,99794.02
2022-11-03T18:59:35.031Z,99784.04
2022-11-03T19:02:03.804Z,99779.16
2022-11-03T19:04:32.226Z,99771.43
2022-11-03T19:07:00.565Z,99773.19
2022-11-03T19:09:28.936Z,99766.02
2022-11-03T19:11:57.627Z,99765.90
2022-11-03T19:14:29.288Z,99757.79
2022-11-03T19:17:21.685Z,99754.71
2022-11-03T19:19:47.800Z,99747.79
2022-11-03T19:22:18.530Z,99746.02
2022-11-03T19:24:46.520Z,99740.95
2022-11-03T19:27:20.385Z,99732.55
2022-11-03T19:29:48.722Z,99731.41
2022-11-03T19:32:22.580Z,99724.38
2022-11-03T19:35:00.203Z,99723.59
2022-11-03T19:37:35.417Z,99718.52
2022-11-03T19:40:09.132Z,99715.65
2022-11-03T19:42:37.482Z,99714.57
2022-11-03T19:45:11.170Z,99708.50
2022-11-03T19:47:57.547Z,99705.00
2022-11-03T19:50:35.171Z,99701.08
2022-11-03T19:53:05.855Z,99692.88
2022-11-03T19:55:37.177Z,99694.27
2022-11-03T19:58:13.387Z,99688.15
2022-11-03T20:00:50.236Z,99681.57
2022-11-03T20:03:18.700Z,99674.73
2022-11-03T20:05:50.647Z,99676.65
2022-11-03T20:08:21.443Z,99669.70
2022-11-03T20:10:49.407Z,99669.58
2022-11-03T20:13:20.532Z,99669.50
2022-11-03T20:15:48.856Z,99663.23
2022-11-03T20:18:16.825Z,99664.85
2022-11-03T20:20:48.205Z,99663.85
2022-11-03T20:23:27.530Z,99672.38
2022-11-03T20:25:55.556Z,99670.29
2022-11-03T20:28:28.379Z,99666.40
2022-11-03T20:30:57.410Z,99660.15
2022-11-03T20:33:25.508Z,99655.81
2022-11-03T20:35:54.652Z,99652.77
2022-11-03T20:38:24.888Z,99649.06
2022-11-03T20:40:58.598Z,99646.13
2022-11-03T20:43:30.503Z,99642.23
2022-11-03T20:45:59.555Z,99638.95
2022-11-03T20:48:28.970Z,99632.45
2022-11-03T20:50:57.431Z,99628.09
2022-11-03T20:53:26.512Z,99624.44
2022-11-03T20:55:54.336Z,99623.05
2022-11-03T20:58:22.364Z,99612.58
2022-11-03T21:00:52.187Z,99610.27
2022-11-03T21:03:53.652Z,99604.00
2022-11-03T21:06:18.405Z,99601.96
2022-11-03T21:08:47.851Z,99598.58
2022-11-03T21:11:25.169Z,99597.48
2022-11-03T21:13:58.166Z,99592.34
2022-11-03T21:16:48.717Z,99590.67
2022-11-03T21:19:39.865Z,99583.16
2022-11-03T21:25:17.027Z,99582.87
2022-11-03T21:27:45.810Z,99581.76
2022-11-03T21:30:15.535Z,99574.95
2022-11-03T21:32:43.966Z,99572.05
2022-11-03T21:35:15.402Z,99566.92
2022-11-03T21:37:44.316Z,99558.80
2022-11-03T21:40:12.929Z,99555.23
2022-11-03T21:42:59.699Z,99550.08
2022-11-03T21:45:27.898Z,99545.80
2022-11-03T21:48:14.870Z,99540.14
2022-11-03T21:50:43.332Z,99524.42
2022-11-03T21:53:11.740Z,99529.38
2022-11-03T21:55:39.807Z,99525.18
2022-11-03T21:58:08.063Z,99520.16
2022-11-03T22:00:38.565Z,99515.34
2022-11-03T22:03:17.765Z,99513.64
2022-11-03T22:05:46.194Z,99516.73
2022-11-03T22:08:13.992Z,99504.80
2022-11-03T22:10:42.325Z,99503.13
2022-11-03T22:13:12.029Z,99495.95
2022-11-03T22:15:58.598Z,99491.08
2022-11-03T22:18:26.922Z,99483.63
2022-11-03T22:21:16.385Z,99481.73
2022-11-03T22:24:02.914Z,99481.73
2022-11-03T22:26:49.354Z,99477.63
2022-11-03T22:29:39.606Z,99475.14
2022-11-03T22:32:15.374Z,99473.91
2022-11-03T22:35:02.197Z,99472.31
2022-11-03T22:40:16.560Z,99467.61
2022-11-03T22:43:02.974Z,99461.47
2022-11-03T22:45:49.671Z,99463.64
2022-11-03T22:48:19.036Z,99455.40
2022-11-03T22:50:47.118Z,99451.50
2022-11-03T22:53:33.324Z,99449.39
2022-11-03T22:56:01.621Z,99453.96
2022-11-03T22:58:30.632Z,99455.09
2022-11-03T23:01:02.397Z,99456.33
2022-11-03T23:03:32.679Z,99451.71
2022-11-03T23:06:06.308Z,99449.59
2022-11-03T23:08:35.796Z,99449.78
2022-11-03T23:11:16.161Z,99442.98
2022-11-03T23:13:46.269Z,99440.31
2022-11-03T23:16:18.454Z,99438.41
2022-11-03T23:19:06.193Z,99434.92
2022-11-03T23:21:35.435Z,99434.17
2022-11-03T23:24:22.403Z,99430.68
2022-11-03T23:26:50.411Z,99434.02
2022-11-03T23:29:18.599Z,99433.92
2022-11-03T23:31:46.602Z,99421.58
2022-11-03T23:34:14.556Z,99432.89
2022-11-03T23:36:42.984Z,99430.84
2022-11-03T23:39:15.768Z,99424.75
2022-11-03T23:41:45.159Z,99426.02
2022-11-03T23:44:15.471Z,99426.53
2022-11-03T23:47:02.935Z,99420.77
2022-11-03T23:49:31.252Z,99413.33
2022-11-03T23:51:59.290Z,99414.50
2022-11-03T23:54:27.356Z,99405.86
2022-11-03T23:57:13.950Z,99410.34
2022-11-03T23:59:41.910Z,99404.65
